createdAt,value
2023-07-19T00:02:07.741Z,-11414.69
2023-07-19T00:05:13.714Z,-11413.00
2023-07-19T00:08:19.762Z,-11398.63
2023-07-19T00:11:25.830Z,-11407.50
2023-07-19T00:14:32.144Z,-11420.63
2023-07-19T00:17:39.778Z,-11427.94
2023-07-19T00:20:46.128Z,-11406.09
2023-07-19T00:23:52.240Z,-11412.16
2023-07-19T00:26:58.690Z,-11419.63
2023-07-19T00:30:06.027Z,-11420.34
2023-07-19T00:33:13.826Z,-11412.16
2023-07-19T00:36:20.365Z,-11401.44
2023-07-19T00:39:26.687Z,-11419.91
2023-07-19T00:42:33.405Z,-11406.81
2023-07-19T00:45:46.791Z,-11409.63
2023-07-19T00:48:54.792Z,-11408.06
2023-07-19T00:52:03.831Z,-11427.09
2023-07-19T00:55:11.535Z,-11406.25
2023-07-19T00:58:18.508Z,-11406.81
2023-07-19T01:01:24.878Z,-11388.91
2023-07-19T01:04:33.157Z,-11380.47
2023-07-19T01:07:39.930Z,-11364.53
2023-07-19T01:10:46.563Z,-11371.28
2023-07-19T01:13:53.916Z,-11385.38
2023-07-19T01:17:00.249Z,-11376.78
2023-07-19T01:20:09.880Z,-11381.44
2023-07-19T01:23:17.664Z,-11399.19
2023-07-19T01:26:24.072Z,-11405.81
2023-07-19T01:29:30.220Z,-11392.16
2023-07-19T01:32:36.700Z,-11388.19
2023-07-19T01:35:42.958Z,-11400.19
2023-07-19T01:38:50.452Z,-11400.31
2023-07-19T01:41:56.945Z,-11396.81
2023-07-19T01:45:03.531Z,-11390.75
2023-07-19T01:48:09.927Z,-11396.09
2023-07-19T01:51:16.025Z,-11400.47
2023-07-19T01:54:23.639Z,-11389.03
2023-07-19T01:57:29.870Z,-11395.12
2023-07-19T02:00:35.741Z,-11405.13
2023-07-19T02:03:41.499Z,-11387.34
2023-07-19T02:06:48.340Z,-11373.84
2023-07-19T02:09:56.541Z,-11377.78
2023-07-19T02:13:02.990Z,-11369.47
2023-07-19T02:16:09.142Z,-11371.84
2023-07-19T02:19:15.388Z,-11375.66
2023-07-19T02:22:21.606Z,-11382.00
2023-07-19T02:25:29.116Z,-11375.38
2023-07-19T02:28:35.715Z,-11384.13
2023-07-19T02:31:42.213Z,-11397.94
2023-07-19T02:34:48.540Z,-11396.09
2023-07-19T02:37:54.953Z,-11400.75
2023-07-19T02:41:04.154Z,-11398.91
2023-07-19T02:44:10.579Z,-11399.19
2023-07-19T02:47:16.891Z,-11387.63
2023-07-19T02:50:23.341Z,-11383.41
2023-07-19T02:53:29.733Z,-11379.75
2023-07-19T02:56:37.349Z,-11382.56
2023-07-19T02:59:43.589Z,-11378.19
2023-07-19T03:02:55.496Z,-11365.09
2023-07-19T03:06:04.238Z,-11359.75
2023-07-19T03:09:12.302Z,-11377.50
2023-07-19T03:12:20.065Z,-11385.09
2023-07-19T03:15:26.401Z,-11392.44
2023-07-19T03:18:32.466Z,-11359.75
2023-07-19T03:21:38.532Z,-11369.47
2023-07-19T03:24:45.137Z,-11377.22
2023-07-19T03:27:53.246Z,-11371.84
2023-07-19T03:31:00.458Z,-11379.03
2023-07-19T03:34:07.701Z,-11385.38
2023-07-19T03:37:14.337Z,-11395.81
2023-07-19T03:40:20.357Z,-11380.75
2023-07-19T03:43:27.593Z,-11366.38
2023-07-19T03:46:33.967Z,-11370.44
2023-07-19T03:49:40.615Z,-11356.66
2023-07-19T03:52:46.837Z,-11348.06
2023-07-19T03:55:55.769Z,-11345.09
2023-07-19T03:59:03.407Z,-11347.78
2023-07-19T04:02:09.603Z,-11367.06
2023-07-19T04:05:15.770Z,-11370.16
2023-07-19T04:08:22.331Z,-11373.84
2023-07-19T04:11:28.794Z,-11364.81
2023-07-19T04:14:36.336Z,-11385.09
2023-07-19T04:17:42.776Z,-11407.38
2023-07-19T04:20:55.798Z,-11414.00
2023-07-19T04:24:01.999Z,-11416.38
2023-07-19T04:27:08.147Z,-11423.72
2023-07-19T04:30:16.279Z,-11411.75
2023-07-19T04:33:22.457Z,-11410.91
2023-07-19T04:36:29.011Z,-11403.72
2023-07-19T04:39:35.470Z,-11418.38
2023-07-19T04:42:41.999Z,-11432.47
2023-07-19T04:45:49.573Z,-11433.59
2023-07-19T04:48:56.242Z,-11455.44
2023-07-19T04:52:02.414Z,-11465.72
2023-07-19T04:55:11.226Z,-11473.78
2023-07-19T04:58:17.824Z,-11461.94
2023-07-19T05:01:25.810Z,-11474.75
2023-07-19T05:04:32.866Z,-11476.31
2023-07-19T05:07:40.314Z,-11478.16
2023-07-19T05:10:46.657Z,-11489.56
2023-07-19T05:13:52.899Z,-11491.81
2023-07-19T05:17:00.701Z,-11493.09
2023-07-19T05:20:09.514Z,-11509.75
2023-07-19T05:23:16.125Z,-11522.16
2023-07-19T05:26:22.891Z,-11519.91
2023-07-19T05:29:29.460Z,-11543.59
2023-07-19T05:32:37.207Z,-11541.34
2023-07-19T05:35:45.204Z,-11555.19
2023-07-19T05:38:51.468Z,-11559.53
2023-07-19T05:41:57.680Z,-11549.25
2023-07-19T05:45:04.446Z,-11546.28
2023-07-19T05:48:11.830Z,-11554.19
2023-07-19T05:51:18.233Z,-11555.19
2023-07-19T05:54:24.541Z,-11551.50
2023-07-19T05:57:32.000Z,-11558.56
2023-07-19T06:00:38.510Z,-11585.53
2023-07-19T06:03:46.653Z,-11587.94
2023-07-19T06:06:52.932Z,-11592.16
2023-07-19T06:09:58.979Z,-11584.81
2023-07-19T06:13:05.328Z,-11573.25
2023-07-19T06:16:11.654Z,-11606.28
2023-07-19T06:19:20.667Z,-11589.91
2023-07-19T06:22:26.900Z,-11593.28
2023-07-19T06:25:33.506Z,-11580.56
2023-07-19T06:28:39.872Z,-11598.38
2023-07-19T06:31:46.224Z,-11602.88
2023-07-19T06:34:54.197Z,-11618.56
2023-07-19T06:38:00.355Z,-11631.69
2023-07-19T06:41:06.787Z,-11640.16
2023-07-19T06:44:13.711Z,-11629.16
2023-07-19T06:47:19.641Z,-11638.75
2023-07-19T06:50:27.068Z,-11661.19
2023-07-19T06:53:33.567Z,-11663.03
2023-07-19T06:56:39.653Z,-11671.78
2023-07-19T06:59:45.507Z,-11668.69
2023-07-19T07:02:51.662Z,-11663.16
2023-07-19T07:06:03.947Z,-11683.66
2023-07-19T07:09:10.225Z,-11697.50
2023-07-19T07:12:16.538Z,-11695.09
2023-07-19T07:15:22.701Z,-11713.03
2023-07-19T07:18:28.895Z,-11714.31
2023-07-19T07:21:36.612Z,-11714.72
2023-07-19T07:24:43.203Z,-11721.66
2023-07-19T07:27:49.674Z,-11690.28
2023-07-19T07:30:56.461Z,-11711.06
2023-07-19T07:34:03.191Z,-11719.94
2023-07-19T07:37:11.862Z,-11744.25
2023-07-19T07:40:18.182Z,-11732.25
2023-07-19T07:43:24.248Z,-11741.28
2023-07-19T07:46:30.743Z,-11733.09
2023-07-19T07:49:37.324Z,-11740.72
2023-07-19T07:52:50.093Z,-11744.81
2023-07-19T07:56:02.016Z,-11745.09
2023-07-19T07:59:11.301Z,-11769.13
2023-07-19T08:02:17.414Z,-11750.06
2023-07-19T08:05:23.435Z,-11752.03
2023-07-19T08:08:31.046Z,-11770.53
2023-07-19T08:11:37.533Z,-11755.41
2023-07-19T08:14:44.703Z,-11774.91
2023-07-19T08:17:50.862Z,-11751.19
2023-07-19T08:20:57.295Z,-11790.16
2023-07-19T08:24:05.538Z,-11800.34
2023-07-19T08:27:11.934Z,-11819.00
2023-07-19T08:30:18.307Z,-11815.31
2023-07-19T08:33:26.488Z,-11793.41
2023-07-19T08:36:33.097Z,-11824.78
2023-07-19T08:39:40.863Z,-11834.97
2023-07-19T08:42:47.347Z,-11793.13
2023-07-19T08:45:53.576Z,-11790.03
2023-07-19T08:49:02.198Z,-11812.22
2023-07-19T08:52:09.838Z,-11791.44
2023-07-19T08:55:18.029Z,-11819.28
2023-07-19T08:58:24.545Z,-11844.16
2023-07-19T09:01:31.347Z,-11815.59
2023-07-19T09:04:40.776Z,-11821.81
2023-07-19T09:07:50.191Z,-11847.41
2023-07-19T09:10:58.119Z,-11819.41
2023-07-19T09:14:05.171Z,-11833.97
2023-07-19T09:17:11.649Z,-11847.84
2023-07-19T09:20:20.964Z,-11857.72
2023-07-19T09:23:27.628Z,-11846.00
2023-07-19T09:26:52.460Z,-11882.03
2023-07-19T09:29:58.549Z,-11847.13
2023-07-19T09:33:05.203Z,-11872.41
2023-07-19T09:36:11.494Z,-11896.31
2023-07-19T09:39:20.041Z,-11869.44
2023-07-19T09:42:33.247Z,-11874.81
2023-07-19T09:45:41.599Z,-11882.72
2023-07-19T09:48:47.672Z,-11876.38
2023-07-19T09:51:57.984Z,-11856.88
2023-07-19T09:55:06.345Z,-11873.84
2023-07-19T09:58:14.806Z,-11873.84
2023-07-19T10:01:22.255Z,-11900.97
2023-07-19T10:04:29.748Z,-11886.97
2023-07-19T10:07:50.062Z,-11874.81
2023-07-19T10:11:00.995Z,-11880.63
2023-07-19T10:14:20.435Z,-11849.25
2023-07-19T10:17:41.867Z,-11862.81
2023-07-19T10:21:01.740Z,-11870.28
2023-07-19T10:24:08.895Z,-11893.91
2023-07-19T10:27:36.751Z,-11876.38
2023-07-19T10:30:55.283Z,-11875.97
2023-07-19T10:34:01.407Z,-11896.16
2023-07-19T10:37:09.656Z,-11890.50
2023-07-19T10:40:16.642Z,-11893.47
2023-07-19T10:43:35.610Z,-11899.56
2023-07-19T10:46:51.730Z,-11892.50
2023-07-19T10:49:58.325Z,-11897.16
2023-07-19T10:53:08.489Z,-11880.63
2023-07-19T10:56:16.383Z,-11896.72
2023-07-19T10:59:22.973Z,-11900.84
2023-07-19T11:02:30.780Z,-11916.25
2023-07-19T11:05:42.707Z,-11894.19
2023-07-19T11:08:49.338Z,-11893.91
2023-07-19T11:11:56.289Z,-11926.13
2023-07-19T11:15:03.308Z,-11918.06
2023-07-19T11:18:11.168Z,-11928.38
2023-07-19T11:21:26.953Z,-11913.97
2023-07-19T11:24:41.051Z,-11921.03
2023-07-19T11:27:51.449Z,-11921.59
2023-07-19T11:30:57.859Z,-11908.88
2023-07-19T11:34:08.097Z,-11905.63
2023-07-19T11:37:18.897Z,-11890.22
2023-07-19T11:40:26.107Z,-11903.66
2023-07-19T11:43:32.720Z,-11912.00
2023-07-19T11:46:39.134Z,-11882.59
2023-07-19T11:49:46.877Z,-11911.44
2023-07-19T11:52:57.323Z,-11906.47
2023-07-19T11:59:17.586Z,-11924.56
2023-07-19T12:02:25.478Z,-11927.25
2023-07-19T12:05:35.624Z,-11918.22
2023-07-19T12:08:42.130Z,-11919.06
2023-07-19T12:11:48.646Z,-11915.66
2023-07-19T12:14:54.973Z,-11916.81
2023-07-19T12:18:01.533Z,-11888.69
2023-07-19T12:21:09.316Z,-11907.06
2023-07-19T12:24:15.710Z,-11879.22
2023-07-19T12:27:21.971Z,-11882.31
2023-07-19T12:30:28.972Z,-11922.88
2023-07-19T12:33:35.603Z,-11900.97
2023-07-19T12:36:43.638Z,-11904.38
2023-07-19T12:39:51.373Z,-11888.53
2023-07-19T12:42:57.851Z,-11897.00
2023-07-19T12:46:04.838Z,-11921.59
2023-07-19T12:49:11.063Z,-11898.41
2023-07-19T12:52:18.852Z,-11897.84
2023-07-19T12:55:25.545Z,-11904.66
2023-07-19T12:58:32.741Z,-11871.56
2023-07-19T13:01:41.254Z,-11906.47
2023-07-19T13:04:47.861Z,-11922.59
2023-07-19T13:07:55.714Z,-11906.47
2023-07-19T13:11:02.153Z,-11908.59
2023-07-19T13:14:09.066Z,-11908.88
2023-07-19T13:17:21.779Z,-11919.78
2023-07-19T13:20:29.192Z,-11895.59
2023-07-19T13:23:37.036Z,-11891.94
2023-07-19T13:26:44.614Z,-11925.00
2023-07-19T13:29:51.303Z,-11906.91
2023-07-19T13:32:58.309Z,-11903.81
2023-07-19T13:36:24.885Z,-11902.94
2023-07-19T13:39:32.749Z,-11926.13
2023-07-19T13:42:39.800Z,-11894.03
2023-07-19T13:45:46.835Z,-11899.84
2023-07-19T13:48:52.995Z,-11907.63
2023-07-19T13:51:59.195Z,-11903.09
2023-07-19T13:55:07.952Z,-11913.25
2023-07-19T13:58:14.932Z,-11887.41
2023-07-19T14:01:22.654Z,-11880.47
2023-07-19T14:04:29.332Z,-11912.00
2023-07-19T14:07:35.691Z,-11888.09
2023-07-19T14:10:43.860Z,-11908.59
2023-07-19T14:17:00.072Z,-11923.59
2023-07-19T14:20:08.398Z,-11897.28
2023-07-19T14:23:14.959Z,-11908.59
2023-07-19T14:26:25.042Z,-11918.22
2023-07-19T14:29:31.870Z,-11926.56
2023-07-19T14:32:38.457Z,-11919.63
2023-07-19T14:35:45.377Z,-11908.31
2023-07-19T14:38:51.482Z,-11925.84
2023-07-19T14:42:00.472Z,-11919.34
2023-07-19T14:45:09.392Z,-11899.84
2023-07-19T14:48:15.997Z,-11907.47
2023-07-19T14:51:22.184Z,-11896.44
2023-07-19T14:54:28.293Z,-11905.34
2023-07-19T14:57:35.911Z,-11914.25
2023-07-19T15:00:42.680Z,-11895.59
2023-07-19T15:03:50.351Z,-11882.31
2023-07-19T15:06:56.926Z,-11927.97
2023-07-19T15:10:03.208Z,-11943.66
2023-07-19T15:13:12.281Z,-11954.25
2023-07-19T15:16:19.277Z,-11978.28
2023-07-19T15:19:25.607Z,-11926.56
2023-07-19T15:22:33.264Z,-11955.81
2023-07-19T15:25:39.972Z,-11974.19
2023-07-19T15:28:48.203Z,-11941.97
2023-07-19T15:31:56.726Z,-11996.66
2023-07-19T15:35:03.772Z,-11968.41
2023-07-19T15:38:09.939Z,-11976.16
2023-07-19T15:41:16.480Z,-11940.25
2023-07-19T15:44:35.216Z,-11869.88
2023-07-19T15:47:42.556Z,-11842.16
2023-07-19T15:50:49.314Z,-11858.28
2023-07-19T15:53:55.796Z,-11862.81
2023-07-19T15:57:01.937Z,-11844.44
2023-07-19T16:00:11.396Z,-11834.81
2023-07-19T16:03:17.830Z,-11833.69
2023-07-19T16:06:24.497Z,-11838.50
2023-07-19T16:09:31.141Z,-11832.56
2023-07-19T16:12:37.348Z,-11830.59
2023-07-19T16:15:44.789Z,-11827.91
2023-07-19T16:18:51.403Z,-11821.81
2023-07-19T16:21:57.884Z,-11825.50
2023-07-19T16:25:04.380Z,-11816.16
2023-07-19T16:28:10.964Z,-11818.28
2023-07-19T16:31:21.869Z,-11817.88
2023-07-19T16:34:28.548Z,-11819.69
2023-07-19T16:37:34.971Z,-11812.34
2023-07-19T16:40:41.499Z,-11807.41
2023-07-19T16:43:47.788Z,-11806.84
2023-07-19T16:46:55.422Z,-11798.38
2023-07-19T16:50:02.248Z,-11798.66
2023-07-19T16:53:16.824Z,-11796.53
2023-07-19T16:56:23.296Z,-11795.81
2023-07-19T16:59:29.566Z,-11783.94
2023-07-19T17:02:37.382Z,-11783.53
2023-07-19T17:05:44.324Z,-11784.66
2023-07-19T17:08:51.287Z,-11773.34
2023-07-19T17:11:57.656Z,-11769.97
2023-07-19T17:15:03.966Z,-11770.38
2023-07-19T17:18:11.774Z,-11765.44
2023-07-19T17:21:18.244Z,-11752.59
2023-07-19T17:24:24.636Z,-11747.78
2023-07-19T17:27:31.085Z,-11739.03
2023-07-19T17:30:37.400Z,-11734.78
2023-07-19T17:33:45.164Z,-11733.66
2023-07-19T17:36:51.638Z,-11728.16
2023-07-19T17:39:57.922Z,-11720.81
2023-07-19T17:43:04.763Z,-11713.31
2023-07-19T17:46:11.298Z,-11711.75
2023-07-19T17:49:19.111Z,-11701.31
2023-07-19T17:52:25.866Z,-11686.91
2023-07-19T17:55:32.591Z,-11684.06
2023-07-19T17:58:38.968Z,-11676.03
2023-07-19T18:01:45.595Z,-11675.19
2023-07-19T18:04:53.708Z,-11679.28
2023-07-19T18:08:15.692Z,-11662.47
2023-07-19T18:11:26.606Z,-11664.59
2023-07-19T18:14:32.992Z,-11670.66
2023-07-19T18:17:39.576Z,-11657.66
2023-07-19T18:20:47.657Z,-11656.53
2023-07-19T18:23:54.017Z,-11654.56
2023-07-19T18:27:00.398Z,-11656.53
2023-07-19T18:30:08.025Z,-11647.06
2023-07-19T18:33:14.632Z,-11643.25
2023-07-19T18:36:22.924Z,-11644.81
2023-07-19T18:39:29.071Z,-11637.34
2023-07-19T18:42:36.340Z,-11644.81
2023-07-19T18:45:42.707Z,-11639.59
2023-07-19T18:48:49.080Z,-11634.22
2023-07-19T18:51:57.751Z,-11628.56
2023-07-19T18:55:04.106Z,-11630.00
2023-07-19T18:58:10.478Z,-11624.06
2023-07-19T19:01:17.366Z,-11619.25
2023-07-19T19:04:23.794Z,-11609.38
2023-07-19T19:07:31.970Z,-11613.63
2023-07-19T19:10:38.552Z,-11619.53
2023-07-19T19:13:45.277Z,-11612.47
2023-07-19T19:16:53.124Z,-11597.38
2023-07-19T19:19:59.683Z,-11602.88
2023-07-19T19:23:09.562Z,-11598.66
2023-07-19T19:26:16.391Z,-11603.03
2023-07-19T19:29:23.473Z,-11604.84
2023-07-19T19:32:30.349Z,-11601.19
2023-07-19T19:35:37.506Z,-11599.22
2023-07-19T19:38:45.639Z,-11602.75
2023-07-19T19:41:52.128Z,-11591.16
2023-07-19T19:44:58.980Z,-11571.13
2023-07-19T19:48:05.943Z,-11573.94
2023-07-19T19:51:12.925Z,-11576.34
2023-07-19T19:54:21.530Z,-11577.75
2023-07-19T19:57:29.237Z,-11576.63
2023-07-19T20:00:37.396Z,-11580.28
2023-07-19T20:03:43.855Z,-11568.44
2023-07-19T20:06:51.028Z,-11558.56
2023-07-19T20:10:02.326Z,-11556.03
2023-07-19T20:13:23.929Z,-11567.88
2023-07-19T20:16:40.205Z,-11561.94
2023-07-19T20:19:53.268Z,-11561.81
2023-07-19T20:23:00.601Z,-11552.34
2023-07-19T20:26:14.049Z,-11543.59
2023-07-19T20:38:51.281Z,-11544.44
2023-07-19T20:41:58.886Z,-11545.88
2023-07-19T20:45:12.935Z,-11552.63
2023-07-19T20:48:19.879Z,-11552.63
2023-07-19T20:51:26.302Z,-11549.81
2023-07-19T20:54:32.685Z,-11542.75
2023-07-19T20:57:40.507Z,-11545.00
2023-07-19T21:00:47.472Z,-11541.34
2023-07-19T21:03:53.994Z,-11535.00
2023-07-19T21:07:00.915Z,-11539.78
2023-07-19T21:10:08.362Z,-11539.22
2023-07-19T21:13:16.259Z,-11536.28
2023-07-19T21:16:22.890Z,-11497.59
2023-07-19T21:19:29.426Z,-11494.94
2023-07-19T21:22:36.542Z,-11503.69
2023-07-19T21:25:43.284Z,-11507.50
2023-07-19T21:28:51.197Z,-11500.84
2023-07-19T21:31:57.414Z,-11496.75
2023-07-19T21:35:03.834Z,-11494.78
2023-07-19T21:38:10.400Z,-11492.53
2023-07-19T21:41:16.812Z,-11491.97
2023-07-19T21:44:24.503Z,-11497.75
2023-07-19T21:47:31.055Z,-11505.66
2023-07-19T21:50:37.359Z,-11499.72
2023-07-19T21:53:44.433Z,-11490.41
2023-07-19T21:56:50.845Z,-11474.06
2023-07-19T21:59:59.752Z,-11470.94
2023-07-19T22:03:06.188Z,-11478.44
2023-07-19T22:06:12.587Z,-11486.03
2023-07-19T22:09:18.709Z,-11484.50
2023-07-19T22:12:25.036Z,-11477.59
2023-07-19T22:15:33.136Z,-11494.50
2023-07-19T22:18:39.564Z,-11482.09
2023-07-19T22:21:45.979Z,-11479.41
2023-07-19T22:24:52.516Z,-11487.75
2023-07-19T22:27:59.176Z,-11496.19
2023-07-19T22:31:06.729Z,-11498.16
2023-07-19T22:34:13.482Z,-11482.94
2023-07-19T22:37:20.208Z,-11471.94
2023-07-19T22:40:27.768Z,-11484.06
2023-07-19T22:43:34.067Z,-11469.69
2023-07-19T22:46:41.751Z,-11459.13
2023-07-19T22:49:49.853Z,-11446.84
2023-07-19T22:52:56.775Z,-11449.53
2023-07-19T22:56:05.158Z,-11454.75
2023-07-19T22:59:11.698Z,-11483.50
2023-07-19T23:02:19.440Z,-11477.03
2023-07-19T23:05:25.973Z,-11487.03
2023-07-19T23:08:32.437Z,-11467.44
2023-07-19T23:11:39.559Z,-11455.16
2023-07-19T23:14:45.830Z,-11439.38
2023-07-19T23:17:54.056Z,-11466.59
2023-07-19T23:21:00.942Z,-11469.81
2023-07-19T23:24:08.078Z,-11476.31
2023-07-19T23:27:14.728Z,-11480.97
2023-07-19T23:30:21.021Z,-11484.06
2023-07-19T23:33:29.787Z,-11484.50
2023-07-19T23:36:38.692Z,-11484.91
2023-07-19T23:39:45.079Z,-11486.03
2023-07-19T23:42:51.760Z,-11487.19
2023-07-19T23:46:00.318Z,-11484.34
2023-07-19T23:49:07.778Z,-11486.59
2023-07-19T23:52:15.932Z,-11482.25
2023-07-19T23:55:22.582Z,-11481.66
2023-07-19T23:58:28.485Z,-11482.94
